createdAt,value
2018-09-02T00:02:18.456Z,6.15
2018-09-02T00:04:46.070Z,6.62
2018-09-02T00:07:13.751Z,9.70
2018-09-02T00:09:41.466Z,11.40
2018-09-02T00:12:09.078Z,9.73
2018-09-02T00:14:36.698Z,8.10
2018-09-02T00:17:04.388Z,7.47
2018-09-02T00:19:32.004Z,8.00
2018-09-02T00:21:59.656Z,8.93
2018-09-02T00:24:27.302Z,9.73
2018-09-02T00:26:54.951Z,8.38
2018-09-02T00:29:22.597Z,10.83
2018-09-02T00:31:50.319Z,8.40
2018-09-02T00:34:17.907Z,11.75
2018-09-02T00:36:45.526Z,10.83
2018-09-02T00:39:13.185Z,12.30
2018-09-02T00:41:40.776Z,8.83
2018-09-02T00:44:08.744Z,10.68
2018-09-02T00:46:36.442Z,11.90
2018-09-02T00:49:04.308Z,9.08
2018-09-02T00:51:31.967Z,9.10
2018-09-02T00:53:59.729Z,9.10
2018-09-02T00:56:27.424Z,8.33
2018-09-02T00:58:55.087Z,9.40
2018-09-02T01:01:22.716Z,9.23
2018-09-02T01:03:50.411Z,10.25
2018-09-02T01:06:18.090Z,9.47
2018-09-02T01:08:45.737Z,8.33
2018-09-02T01:11:13.380Z,9.78
2018-09-02T01:13:41.000Z,9.57
2018-09-02T01:16:08.713Z,8.87
2018-09-02T01:18:36.364Z,7.87
2018-09-02T01:21:04.012Z,7.93
2018-09-02T01:23:31.661Z,8.60
2018-09-02T01:25:59.301Z,8.93
2018-09-02T01:28:26.925Z,10.87
2018-09-02T01:30:54.590Z,8.93
2018-09-02T01:33:22.201Z,7.50
2018-09-02T01:35:49.886Z,7.80
2018-09-02T01:38:17.523Z,8.23
2018-09-02T01:40:45.142Z,9.63
2018-09-02T01:43:12.739Z,9.30
2018-09-02T01:45:40.380Z,8.60
2018-09-02T01:48:08.004Z,9.33
2018-09-02T01:50:35.619Z,9.88
2018-09-02T01:53:03.317Z,10.77
2018-09-02T01:55:30.952Z,9.73
2018-09-02T01:57:58.575Z,9.90
2018-09-02T02:00:26.263Z,11.37
2018-09-02T02:02:53.876Z,10.05
2018-09-02T02:05:21.553Z,10.13
2018-09-02T02:07:49.275Z,13.23
2018-09-02T02:10:16.915Z,11.25
2018-09-02T02:12:44.520Z,12.07
2018-09-02T02:15:12.169Z,11.60
2018-09-02T02:17:39.807Z,11.67
2018-09-02T02:20:07.550Z,11.67
2018-09-02T02:22:35.195Z,12.70
2018-09-02T02:25:02.990Z,12.00
2018-09-02T02:27:30.665Z,11.97
2018-09-02T02:29:58.632Z,12.20
2018-09-02T02:32:26.280Z,14.53
2018-09-02T02:34:53.899Z,10.07
2018-09-02T02:37:21.590Z,13.47
2018-09-02T02:39:49.220Z,11.30
2018-09-02T02:42:16.835Z,12.57
2018-09-02T02:44:44.495Z,12.75
2018-09-02T02:47:12.155Z,15.30
2018-09-02T02:49:39.795Z,14.97
2018-09-02T02:52:07.506Z,17.30
2018-09-02T02:54:35.170Z,13.33
2018-09-02T02:57:02.808Z,15.13
2018-09-02T02:59:30.467Z,15.60
2018-09-02T03:01:58.111Z,13.43
2018-09-02T03:04:25.734Z,12.60
2018-09-02T03:06:53.421Z,18.10
2018-09-02T03:09:21.110Z,14.15
2018-09-02T03:11:48.819Z,14.27
2018-09-02T03:14:16.500Z,14.77
2018-09-02T03:16:44.125Z,13.43
2018-09-02T03:19:11.766Z,15.33
2018-09-02T03:21:39.447Z,10.53
2018-09-02T03:24:07.179Z,12.33
2018-09-02T03:26:34.816Z,11.30
2018-09-02T03:29:02.495Z,12.68
2018-09-02T03:31:30.117Z,15.05
2018-09-02T03:33:57.752Z,11.73
2018-09-02T03:36:25.484Z,12.00
2018-09-02T03:38:53.097Z,21.67
2018-09-02T03:41:20.717Z,13.30
2018-09-02T03:43:48.435Z,12.90
2018-09-02T03:46:16.066Z,13.80
2018-09-02T03:48:43.764Z,11.53
2018-09-02T03:51:11.452Z,16.80
2018-09-02T03:53:39.056Z,11.33
2018-09-02T03:56:06.739Z,15.57
2018-09-02T03:58:34.484Z,11.37
2018-09-02T04:01:02.212Z,13.45
2018-09-02T04:03:29.859Z,14.87
2018-09-02T04:05:57.598Z,13.90
2018-09-02T04:08:25.223Z,13.10
2018-09-02T04:10:52.820Z,11.73
2018-09-02T04:13:20.501Z,13.22
2018-09-02T04:15:48.171Z,15.37
2018-09-02T04:18:15.843Z,10.97
2018-09-02T04:20:43.536Z,12.00
2018-09-02T04:23:11.202Z,15.77
2018-09-02T04:25:38.836Z,14.37
2018-09-02T04:28:06.504Z,16.40
2018-09-02T04:30:34.134Z,12.63
2018-09-02T04:33:01.771Z,11.45
2018-09-02T04:35:29.438Z,13.27
2018-09-02T04:37:57.052Z,16.73
2018-09-02T04:40:24.690Z,15.43
2018-09-02T04:42:52.409Z,17.12
2018-09-02T04:45:20.172Z,15.50
2018-09-02T04:47:47.798Z,13.47
2018-09-02T04:50:17.589Z,11.78
2018-09-02T04:52:45.195Z,15.17
2018-09-02T04:55:12.846Z,14.70
2018-09-02T04:57:41.264Z,17.48
2018-09-02T05:00:08.946Z,12.30
2018-09-02T05:02:36.552Z,12.60
2018-09-02T05:05:04.378Z,15.30
2018-09-02T05:07:32.341Z,11.53
2018-09-02T05:09:59.997Z,10.58
2018-09-02T05:12:27.620Z,11.73
2018-09-02T05:14:55.517Z,10.23
2018-09-02T05:17:25.297Z,9.40
2018-09-02T05:19:52.979Z,8.93
2018-09-02T05:22:20.739Z,7.63
2018-09-02T05:24:48.526Z,7.85
2018-09-02T05:27:16.393Z,7.40
2018-09-02T05:29:44.007Z,8.43
2018-09-02T05:32:11.603Z,7.57
2018-09-02T05:34:39.219Z,7.03
2018-09-02T05:37:07.023Z,7.37
2018-09-02T05:39:34.619Z,7.37
2018-09-02T05:42:02.257Z,7.53
2018-09-02T05:44:29.911Z,7.37
2018-09-02T05:46:57.495Z,10.60
2018-09-02T05:49:25.137Z,10.23
2018-09-02T05:51:52.752Z,9.40
2018-09-02T05:54:20.346Z,6.40
2018-09-02T05:56:47.990Z,6.45
2018-09-02T05:59:15.627Z,6.45
2018-09-02T06:01:43.235Z,7.30
2018-09-02T06:04:10.864Z,6.60
2018-09-02T06:06:38.444Z,8.30
2018-09-02T06:09:06.668Z,8.10
2018-09-02T06:11:34.280Z,7.20
2018-09-02T06:14:01.925Z,7.80
2018-09-02T06:16:29.507Z,8.28
2018-09-02T06:18:57.140Z,7.87
2018-09-02T06:21:24.755Z,8.23
2018-09-02T06:23:52.420Z,9.07
2018-09-02T06:26:20.068Z,7.80
2018-09-02T06:28:47.700Z,6.57
2018-09-02T06:31:15.319Z,8.77
2018-09-02T06:33:42.961Z,21.42
2018-09-02T06:36:10.645Z,9.60
2018-09-02T06:38:38.227Z,6.93
2018-09-02T06:41:06.175Z,6.50
2018-09-02T06:43:33.784Z,5.43
2018-09-02T06:46:01.439Z,5.92
2018-09-02T06:48:29.162Z,5.80
2018-09-02T06:50:56.787Z,5.90
2018-09-02T06:53:24.406Z,5.23
2018-09-02T06:55:52.056Z,5.03
2018-09-02T06:58:19.747Z,5.35
2018-09-02T07:00:47.366Z,5.77
2018-09-02T07:03:15.095Z,6.20
2018-09-02T07:05:42.756Z,6.08
2018-09-02T07:08:11.552Z,5.80
2018-09-02T07:10:39.746Z,6.50
2018-09-02T07:13:07.362Z,6.30
2018-09-02T07:15:34.993Z,6.73
2018-09-02T07:18:02.836Z,6.20
2018-09-02T07:20:30.691Z,6.83
2018-09-02T07:22:58.313Z,6.60
2018-09-02T07:25:25.999Z,6.67
2018-09-02T07:27:53.778Z,6.20
2018-09-02T07:30:21.388Z,7.03
2018-09-02T07:32:48.999Z,7.20
2018-09-02T07:35:16.610Z,7.22
2018-09-02T07:37:44.338Z,7.93
2018-09-02T07:40:12.000Z,7.43
2018-09-02T07:42:39.671Z,13.50
2018-09-02T07:45:08.075Z,23.43
2018-09-02T07:47:35.941Z,10.88
2018-09-02T07:50:03.622Z,6.83
2018-09-02T07:52:31.236Z,7.10
2018-09-02T07:54:58.874Z,6.33
2018-09-02T07:57:26.448Z,6.83
2018-09-02T07:59:54.103Z,6.60
2018-09-02T08:02:21.842Z,5.77
2018-09-02T08:04:49.475Z,5.60
2018-09-02T08:07:17.084Z,6.08
2018-09-02T08:09:44.739Z,5.87
2018-09-02T08:12:12.677Z,5.17
2018-09-02T08:14:40.265Z,4.80
2018-09-02T08:17:07.916Z,4.93
2018-09-02T08:19:35.534Z,5.20
2018-09-02T08:22:03.296Z,5.05
2018-09-02T08:24:30.973Z,5.10
2018-09-02T08:26:58.599Z,4.95
2018-09-02T08:29:26.602Z,4.90
2018-09-02T08:31:54.370Z,4.50
2018-09-02T08:34:22.076Z,4.17
2018-09-02T08:36:49.711Z,4.13
2018-09-02T08:39:17.369Z,3.70
2018-09-02T08:41:45.084Z,4.13
2018-09-02T08:44:12.711Z,4.00
2018-09-02T08:46:40.388Z,4.17
2018-09-02T08:49:08.191Z,3.57
2018-09-02T08:51:35.797Z,3.50
2018-09-02T08:54:03.587Z,3.47
2018-09-02T08:56:31.207Z,3.30
2018-09-02T08:58:58.857Z,3.57
2018-09-02T09:01:26.551Z,3.50
2018-09-02T09:03:54.167Z,3.63
2018-09-02T09:06:22.303Z,3.90
2018-09-02T09:08:50.166Z,4.27
2018-09-02T09:11:17.672Z,4.47
2018-09-02T09:13:45.298Z,3.98
2018-09-02T09:16:12.986Z,4.50
2018-09-02T09:18:40.599Z,4.97
2018-09-02T09:21:08.201Z,5.13
2018-09-02T09:23:35.881Z,5.07
2018-09-02T09:26:03.551Z,6.75
2018-09-02T09:28:31.140Z,5.80
2018-09-02T09:30:58.815Z,5.73
2018-09-02T09:33:26.479Z,6.55
2018-09-02T09:35:54.108Z,8.00
2018-09-02T09:38:21.786Z,8.23
2018-09-02T09:40:49.407Z,8.03
2018-09-02T09:43:17.009Z,8.60
2018-09-02T09:45:44.627Z,8.85
2018-09-02T09:48:12.216Z,9.30
2018-09-02T09:50:39.880Z,11.87
2018-09-02T09:53:07.560Z,11.50
2018-09-02T09:55:35.195Z,16.95
2018-09-02T09:58:03.026Z,21.23
2018-09-02T10:01:03.280Z,15.00
2018-09-02T10:03:30.917Z,14.43
2018-09-02T10:05:58.519Z,15.67
2018-09-02T10:08:26.115Z,13.83
2018-09-02T10:10:53.733Z,16.57
2018-09-02T10:13:21.323Z,16.60
2018-09-02T10:15:48.950Z,19.23
2018-09-02T10:18:16.609Z,18.17
2018-09-02T10:20:44.200Z,17.40
2018-09-02T10:23:11.832Z,19.73
2018-09-02T10:25:39.598Z,24.07
2018-09-02T10:28:07.294Z,25.30
2018-09-02T10:30:35.026Z,21.97
2018-09-02T10:33:02.714Z,25.43
2018-09-02T10:35:30.311Z,24.25
2018-09-02T10:37:58.046Z,24.82
2018-09-02T10:40:25.651Z,24.70
2018-09-02T10:42:53.267Z,27.87
2018-09-02T10:45:21.021Z,24.67
2018-09-02T10:47:48.646Z,27.10
2018-09-02T10:50:16.270Z,26.17
2018-09-02T10:52:43.919Z,27.20
2018-09-02T10:55:11.511Z,29.30
2018-09-02T10:57:39.137Z,26.73
2018-09-02T11:00:08.500Z,27.70
2018-09-02T11:02:36.196Z,24.07
2018-09-02T11:05:03.890Z,26.77
2018-09-02T11:07:31.527Z,25.30
2018-09-02T11:09:59.147Z,24.65
2018-09-02T11:12:26.723Z,26.80
2018-09-02T11:14:54.346Z,22.03
2018-09-02T11:17:21.963Z,28.62
2018-09-02T11:19:49.559Z,28.73
2018-09-02T11:22:17.205Z,26.10
2018-09-02T11:24:44.818Z,25.60
2018-09-02T11:27:12.451Z,27.77
2018-09-02T11:29:40.167Z,25.20
2018-09-02T11:32:07.771Z,26.17
2018-09-02T11:34:35.351Z,26.68
2018-09-02T11:37:02.999Z,29.63
2018-09-02T11:39:30.701Z,33.23
2018-09-02T11:41:58.314Z,31.27
2018-09-02T11:44:25.982Z,27.58
2018-09-02T11:46:53.796Z,26.27
2018-09-02T11:49:21.403Z,36.00
2018-09-02T11:51:49.073Z,27.27
2018-09-02T11:54:16.780Z,32.87
2018-09-02T11:56:44.430Z,30.43
2018-09-02T11:59:12.091Z,30.45
2018-09-02T12:01:39.826Z,27.90
2018-09-02T12:04:07.649Z,32.60
2018-09-02T12:06:35.472Z,32.90
2018-09-02T12:09:04.502Z,30.03
2018-09-02T12:11:32.177Z,26.87
2018-09-02T12:13:59.919Z,29.83
2018-09-02T12:16:27.481Z,29.92
2018-09-02T12:18:55.127Z,27.93
2018-09-02T12:21:22.804Z,29.20
2018-09-02T12:23:50.446Z,25.57
2018-09-02T12:26:18.089Z,26.77
2018-09-02T12:28:45.760Z,30.48
2018-09-02T12:31:13.379Z,35.63
2018-09-02T12:33:41.044Z,40.13
2018-09-02T12:36:08.858Z,33.67
2018-09-02T12:38:36.881Z,30.00
2018-09-02T12:41:04.664Z,36.00
2018-09-02T12:43:32.381Z,29.80
2018-09-02T12:46:00.108Z,34.83
2018-09-02T12:48:27.927Z,29.37
2018-09-02T12:50:56.192Z,32.57
2018-09-02T12:53:23.868Z,31.87
2018-09-02T12:55:51.605Z,32.03
2018-09-02T12:58:19.304Z,34.38
2018-09-02T13:00:46.950Z,32.60
2018-09-02T13:03:14.584Z,29.23
2018-09-02T13:05:42.240Z,30.00
2018-09-02T13:08:09.869Z,32.40
2018-09-02T13:10:37.584Z,31.75
2018-09-02T13:13:05.499Z,34.60
2018-09-02T13:15:33.190Z,36.10
2018-09-02T13:18:00.854Z,36.40
2018-09-02T13:20:28.541Z,35.33
2018-09-02T13:22:56.199Z,33.77
2018-09-02T13:25:23.928Z,36.93
2018-09-02T13:27:51.637Z,36.90
2018-09-02T13:30:19.271Z,40.27
2018-09-02T13:32:46.930Z,39.65
2018-09-02T13:35:14.602Z,39.53
2018-09-02T13:37:42.237Z,38.07
2018-09-02T13:40:09.941Z,35.80
2018-09-02T13:42:37.729Z,40.30
2018-09-02T13:45:05.857Z,34.23
2018-09-02T13:47:33.613Z,40.90
2018-09-02T13:50:01.265Z,44.87
2018-09-02T13:52:28.913Z,41.33
2018-09-02T13:54:56.545Z,37.67
2018-09-02T13:57:24.265Z,38.97
2018-09-02T13:59:52.119Z,42.27
2018-09-02T14:02:19.704Z,38.27
2018-09-02T14:04:47.415Z,44.80
2018-09-02T14:07:15.064Z,43.95
2018-09-02T14:09:42.695Z,46.37
2018-09-02T14:12:10.383Z,43.02
2018-09-02T14:14:38.029Z,41.90
2018-09-02T14:17:05.694Z,42.13
2018-09-02T14:19:33.377Z,45.80
2018-09-02T14:22:01.033Z,49.33
2018-09-02T14:24:28.682Z,49.60
2018-09-02T14:26:56.347Z,40.03
2018-09-02T14:29:24.084Z,43.23
2018-09-02T14:31:51.745Z,41.27
2018-09-02T14:34:19.391Z,39.57
2018-09-02T14:36:47.081Z,39.13
2018-09-02T14:39:14.740Z,39.48
2018-09-02T14:41:42.723Z,38.77
2018-09-02T14:44:10.396Z,41.77
2018-09-02T14:46:38.583Z,37.70
2018-09-02T14:49:06.483Z,36.10
2018-09-02T14:51:34.120Z,37.13
2018-09-02T14:54:01.760Z,33.30
2018-09-02T14:56:29.457Z,37.33
2018-09-02T14:58:57.052Z,38.53
2018-09-02T15:01:24.788Z,35.70
2018-09-02T15:03:52.501Z,37.73
2018-09-02T15:06:20.215Z,34.87
2018-09-02T15:08:47.850Z,35.80
2018-09-02T15:11:15.556Z,34.10
2018-09-02T15:13:43.280Z,33.77
2018-09-02T15:16:11.320Z,34.00
2018-09-02T15:18:39.136Z,39.07
2018-09-02T15:21:07.340Z,41.50
2018-09-02T15:23:34.972Z,37.40
2018-09-02T15:26:03.522Z,32.47
2018-09-02T15:28:31.303Z,37.23
2018-09-02T15:30:59.332Z,35.53
2018-09-02T15:33:28.098Z,37.53
2018-09-02T15:35:55.875Z,37.30
2018-09-02T15:38:23.554Z,42.23
2018-09-02T15:40:51.410Z,38.30
2018-09-02T15:43:20.023Z,40.38
2018-09-02T15:45:47.827Z,35.90
2018-09-02T15:48:15.625Z,41.20
2018-09-02T15:50:43.515Z,36.50
2018-09-02T15:53:11.313Z,38.97
2018-09-02T15:55:39.242Z,34.20
2018-09-02T15:58:07.266Z,36.07
2018-09-02T16:00:35.010Z,34.53
2018-09-02T16:03:02.977Z,34.97
2018-09-02T16:05:30.998Z,38.37
2018-09-02T16:07:58.766Z,35.27
2018-09-02T16:10:26.561Z,34.80
2018-09-02T16:12:54.388Z,33.03
2018-09-02T16:15:22.169Z,33.90
2018-09-02T16:17:50.010Z,35.85
2018-09-02T16:20:17.749Z,36.15
2018-09-02T16:22:45.360Z,56.10
2018-09-02T16:25:13.106Z,237.33
2018-09-02T16:27:40.742Z,55.90
2018-09-02T16:30:08.456Z,48.93
2018-09-02T16:32:36.281Z,43.20
2018-09-02T16:35:04.039Z,39.33
2018-09-02T16:37:31.794Z,39.15
2018-09-02T16:39:59.602Z,38.13
2018-09-02T16:42:27.912Z,37.70
2018-09-02T16:44:57.756Z,39.87
2018-09-02T16:47:25.444Z,43.30
2018-09-02T16:49:53.274Z,38.07
2018-09-02T16:52:21.047Z,43.02
2018-09-02T16:54:49.184Z,37.48
2018-09-02T16:57:18.062Z,38.30
2018-09-02T16:59:46.594Z,39.17
2018-09-02T17:02:14.344Z,40.70
2018-09-02T17:04:44.711Z,35.67
2018-09-02T17:07:12.598Z,54.20
2018-09-02T17:09:40.485Z,47.67
2018-09-02T17:12:09.309Z,45.43
2018-09-02T17:14:44.784Z,45.73
2018-09-02T17:17:12.436Z,68.70
2018-09-02T17:19:42.773Z,55.23
2018-09-02T17:22:10.470Z,42.83
2018-09-02T17:24:38.357Z,41.93
2018-09-02T17:27:06.091Z,59.57
2018-09-02T17:29:34.489Z,53.58
2018-09-02T17:32:06.034Z,43.37
2018-09-02T17:34:33.870Z,37.47
2018-09-02T17:37:01.676Z,34.63
2018-09-02T17:39:29.358Z,40.33
2018-09-02T17:41:57.488Z,37.75
2018-09-02T17:44:25.245Z,40.87
2018-09-02T17:46:53.150Z,39.30
2018-09-02T17:49:20.801Z,44.20
2018-09-02T17:51:48.490Z,36.95
2018-09-02T17:54:16.286Z,36.65
2018-09-02T17:56:44.083Z,33.95
2018-09-02T17:59:11.834Z,39.08
2018-09-02T18:01:39.644Z,36.97
2018-09-02T18:04:07.284Z,39.17
2018-09-02T18:06:35.050Z,36.57
2018-09-02T18:09:04.623Z,43.40
2018-09-02T18:11:32.304Z,35.83
2018-09-02T18:13:59.983Z,47.20
2018-09-02T18:16:27.796Z,38.63
2018-09-02T18:18:56.312Z,38.70
2018-09-02T18:21:23.989Z,36.17
2018-09-02T18:23:51.755Z,37.40
2018-09-02T18:26:19.469Z,36.68
2018-09-02T18:28:47.965Z,35.10
2018-09-02T18:31:15.716Z,39.00
2018-09-02T18:33:43.479Z,35.30
2018-09-02T18:36:11.399Z,38.17
2018-09-02T18:38:39.052Z,33.27
2018-09-02T18:41:06.755Z,39.10
2018-09-02T18:43:34.584Z,38.23
2018-09-02T18:46:02.472Z,31.20
2018-09-02T18:48:30.155Z,37.35
2018-09-02T18:50:57.875Z,38.63
2018-09-02T18:53:27.636Z,40.77
2018-09-02T18:55:55.760Z,40.53
2018-09-02T18:58:23.549Z,42.60
2018-09-02T19:00:51.911Z,41.23
2018-09-02T19:03:19.625Z,39.20
2018-09-02T19:05:47.301Z,36.90
2018-09-02T19:08:15.533Z,42.10
2018-09-02T19:10:43.220Z,38.13
2018-09-02T19:13:11.056Z,33.93
2018-09-02T19:15:38.832Z,36.83
2018-09-02T19:18:06.842Z,39.08
2018-09-02T19:20:34.480Z,44.30
2018-09-02T19:23:02.293Z,35.95
2018-09-02T19:25:30.008Z,41.65
2018-09-02T19:27:57.688Z,37.10
2018-09-02T19:30:25.321Z,37.43
2018-09-02T19:32:52.977Z,38.77
2018-09-02T19:35:20.647Z,41.67
2018-09-02T19:37:48.325Z,39.30
2018-09-02T19:40:15.957Z,40.23
2018-09-02T19:42:43.754Z,39.93
2018-09-02T19:45:11.384Z,43.20
2018-09-02T19:47:39.127Z,42.17
2018-09-02T19:50:07.081Z,42.63
2018-09-02T19:52:34.744Z,36.17
2018-09-02T19:55:02.372Z,40.23
2018-09-02T19:57:29.988Z,42.83
2018-09-02T19:59:57.664Z,43.70
2018-09-02T20:02:25.307Z,47.20
2018-09-02T20:04:52.973Z,40.23
2018-09-02T20:07:20.625Z,43.13
2018-09-02T20:09:48.275Z,47.43
2018-09-02T20:12:15.972Z,43.23
2018-09-02T20:14:43.612Z,48.78
2018-09-02T20:17:11.243Z,47.37
2018-09-02T20:19:38.867Z,42.70
2018-09-02T20:22:08.719Z,44.77
2018-09-02T20:24:36.410Z,44.67
2018-09-02T20:27:04.056Z,39.03
2018-09-02T20:29:31.703Z,46.23
2018-09-02T20:31:59.375Z,50.40
2018-09-02T20:34:26.972Z,44.47
2018-09-02T20:36:54.693Z,42.50
2018-09-02T20:39:22.335Z,49.60
2018-09-02T20:41:49.924Z,49.67
2018-09-02T20:44:17.573Z,52.03
2018-09-02T20:46:45.184Z,51.30
2018-09-02T20:49:12.802Z,44.45
2018-09-02T20:51:40.472Z,48.90
2018-09-02T20:54:08.076Z,48.23
2018-09-02T20:56:35.699Z,53.30
2018-09-02T20:59:03.376Z,51.10
2018-09-02T21:01:31.009Z,55.60
2018-09-02T21:03:58.684Z,61.90
2018-09-02T21:06:26.376Z,56.85
2018-09-02T21:08:54.060Z,53.28
2018-09-02T21:11:21.713Z,49.50
2018-09-02T21:13:49.380Z,55.93
2018-09-02T21:16:17.023Z,49.57
2018-09-02T21:18:44.628Z,54.33
2018-09-02T21:21:12.307Z,52.13
2018-09-02T21:23:39.916Z,51.63
2018-09-02T21:26:07.540Z,62.48
2018-09-02T21:28:35.203Z,53.60
2018-09-02T21:31:02.856Z,53.00
2018-09-02T21:33:30.479Z,55.60
2018-09-02T21:35:58.095Z,52.60
2018-09-02T21:38:25.749Z,56.90
2018-09-02T21:40:53.356Z,48.87
2018-09-02T21:43:20.985Z,50.63
2018-09-02T21:45:48.607Z,54.38
2018-09-02T21:48:16.239Z,52.90
2018-09-02T21:50:44.059Z,52.03
2018-09-02T21:53:11.939Z,52.55
2018-09-02T21:55:39.583Z,54.20
2018-09-02T21:58:07.255Z,56.42
2018-09-02T22:00:34.897Z,52.07
2018-09-02T22:03:02.518Z,54.97
2018-09-02T22:05:30.237Z,54.47
2018-09-02T22:07:57.880Z,52.95
2018-09-02T22:10:25.524Z,51.98
2018-09-02T22:12:53.181Z,47.13
2018-09-02T22:15:20.856Z,48.97
2018-09-02T22:17:48.504Z,48.17
2018-09-02T22:20:16.145Z,53.08
2018-09-02T22:22:43.796Z,63.37
2018-09-02T22:25:11.473Z,54.57
2018-09-02T22:27:39.252Z,54.77
2018-09-02T22:30:07.831Z,51.75
2018-09-02T22:32:35.465Z,56.90
2018-09-02T22:35:03.158Z,56.00
2018-09-02T22:37:30.803Z,56.80
2018-09-02T22:39:58.431Z,55.13
2018-09-02T22:42:26.072Z,58.23
2018-09-02T22:44:53.664Z,61.90
2018-09-02T22:47:21.269Z,54.95
2018-09-02T22:49:50.003Z,57.60
2018-09-02T22:52:17.629Z,66.13
2018-09-02T22:54:45.225Z,65.33
2018-09-02T22:57:12.884Z,64.10
2018-09-02T22:59:40.666Z,56.58
2018-09-02T23:02:08.521Z,56.63
2018-09-02T23:04:36.182Z,55.50
2018-09-02T23:07:03.816Z,54.20
2018-09-02T23:09:31.439Z,65.27
2018-09-02T23:11:59.144Z,58.77
2018-09-02T23:14:26.768Z,57.43
2018-09-02T23:16:55.388Z,57.77
2018-09-02T23:19:23.099Z,54.88
2018-09-02T23:21:50.746Z,58.85
2018-09-02T23:24:18.472Z,60.73
2018-09-02T23:26:46.148Z,62.33
2018-09-02T23:29:13.780Z,64.80
2018-09-02T23:31:41.368Z,65.77
2018-09-02T23:34:09.009Z,59.42
2018-09-02T23:36:36.635Z,66.97
2018-09-02T23:39:06.877Z,70.10
2018-09-02T23:41:34.511Z,72.73
2018-09-02T23:44:02.178Z,62.13
2018-09-02T23:46:29.776Z,66.80
2018-09-02T23:48:57.419Z,63.90
2018-09-02T23:51:25.048Z,71.80
2018-09-02T23:53:52.687Z,65.63
2018-09-02T23:56:20.336Z,58.10
2018-09-02T23:58:47.998Z,60.10
